Time;durP1;ratioP1;P1;durP2;ratioP2;P2;SDS_P1;SDS_P2;PMS_P1;PMS_P2;Temp;Humidity;BMP_temperature;BMP_pressure;BME280_temperature;BME280_humidity;BME280_pressure;Samples;Min_cycle;Max_cycle;Signal;HPM_P1;HPM_P2
2021/03/17 00:00:51;;;;;;;;;;;2.20;99.90;;;;;;5053301;28;19912;-62
2021/03/17 00:03:17;;;;;;;;;;;2.10;99.90;;;;;;5047335;28;19923;-63
2021/03/17 00:05:43;;;;;;;;;;;2.40;99.90;;;;;;5052229;28;19916;-63
2021/03/17 00:08:08;;;;;;;;;;;2.20;99.90;;;;;;5058238;28;20266;-62
2021/03/17 00:10:38;;;;;;;;;;;2.00;99.90;;;;;;5047627;28;19963;-62
2021/03/17 00:13:04;;;;;;;;;;;2.30;99.90;;;;;;5049882;28;19912;-64
2021/03/17 00:15:35;;;;;;;;;;;2.30;99.90;;;;;;5042757;28;19923;-64
2021/03/17 00:18:00;;;;;;;;;;;2.30;99.90;;;;;;5050957;28;20022;-63
2021/03/17 00:20:27;;;;;;;;;;;2.10;99.90;;;;;;5047600;28;19908;-64
2021/03/17 00:22:53;;;;;;;;;;;2.40;99.90;;;;;;5063258;28;20380;-64
2021/03/17 00:25:20;;;;;;;;;;;2.20;99.90;;;;;;5051654;28;19914;-62
2021/03/17 00:27:46;;;;;;;;;;;2.20;99.90;;;;;;5059832;28;20347;-62
2021/03/17 00:30:12;;;;;;;;;;;2.40;99.90;;;;;;5050012;28;19912;-61
2021/03/17 00:32:37;;;;;;;;;;;2.20;99.90;;;;;;5051027;28;19916;-61
2021/03/17 00:35:03;;;;;;;;;;;2.20;99.90;;;;;;5047854;28;20603;-62
2021/03/17 00:37:28;;;;;;;;;;;2.00;99.90;;;;;;5051763;28;19920;-61
2021/03/17 00:39:54;;;;;;;;;;;2.10;99.90;;;;;;5047071;28;19971;-62
2021/03/17 00:42:19;;;;;;;;;;;2.30;99.90;;;;;;5050637;28;20368;-61
2021/03/17 00:44:45;;;;;;;;;;;2.40;99.90;;;;;;5049402;28;19916;-62
2021/03/17 00:47:10;;;;;;;;;;;2.30;99.90;;;;;;5044568;28;19917;-64
2021/03/17 00:49:36;;;;;;;;;;;2.20;99.90;;;;;;5052022;28;20363;-62
2021/03/17 00:52:02;;;;;;;;;;;2.30;99.90;;;;;;5047574;28;19943;-61
2021/03/17 00:54:27;;;;;;;;;;;2.10;99.90;;;;;;5063263;28;20083;-64
2021/03/17 00:56:53;;;;;;;;;;;2.30;99.90;;;;;;5048299;28;20348;-62
2021/03/17 00:59:18;;;;;;;;;;;2.30;99.90;;;;;;5047050;28;19913;-64
2021/03/17 01:01:44;;;;;;;;;;;2.20;99.90;;;;;;5051433;28;19974;-63
2021/03/17 01:04:10;;;;;;;;;;;2.30;99.90;;;;;;5044518;28;19908;-62
2021/03/17 01:06:35;;;;;;;;;;;2.30;99.90;;;;;;5066445;28;19989;-62
2021/03/17 01:09:01;;;;;;;;;;;2.20;99.90;;;;;;5050956;28;19915;-62
2021/03/17 01:11:26;;;;;;;;;;;2.40;99.90;;;;;;5048508;28;19916;-61
2021/03/17 01:13:52;;;;;;;;;;;2.30;99.90;;;;;;5051214;28;20794;-62
2021/03/17 01:16:17;;;;;;;;;;;2.30;99.90;;;;;;5046566;28;19912;-61
2021/03/17 01:18:43;;;;;;;;;;;2.30;99.90;;;;;;5050916;28;20420;-61
2021/03/17 01:21:08;;;;;;;;;;;2.30;99.90;;;;;;5051151;28;19965;-62
2021/03/17 01:23:34;;;;;;;;;;;2.30;99.90;;;;;;5047722;28;19918;-62
2021/03/17 01:25:59;;;;;;;;;;;2.30;99.90;;;;;;5051870;28;19920;-62
2021/03/17 01:28:25;;;;;;;;;;;2.10;99.90;;;;;;5046940;28;19920;-62
2021/03/17 01:30:52;;;;;;;;;;;2.10;99.90;;;;;;5048833;28;20430;-63
2021/03/17 01:33:17;;;;;;;;;;;2.10;99.90;;;;;;5050462;28;19912;-62
2021/03/17 01:35:44;;;;;;;;;;;2.10;99.90;;;;;;5049373;28;19916;-61
2021/03/17 01:38:11;;;;;;;;;;;2.10;99.90;;;;;;5053970;28;19959;-64
2021/03/17 01:40:37;;;;;;;;;;;2.10;99.90;;;;;;5046203;28;20364;-63
2021/03/17 01:43:03;;;;;;;;;;;1.90;99.90;;;;;;5049189;28;20415;-62
2021/03/17 01:45:29;;;;;;;;;;;2.20;99.90;;;;;;5049233;28;19995;-63
2021/03/17 01:47:54;;;;;;;;;;;2.00;99.90;;;;;;5044681;28;20295;-63
2021/03/17 01:50:24;;;;;;;;;;;2.20;99.90;;;;;;5063299;28;20020;-61
2021/03/17 01:52:50;;;;;;;;;;;1.90;99.90;;;;;;5050104;28;19908;-64
2021/03/17 01:55:16;;;;;;;;;;;1.90;99.90;;;;;;5050999;28;19917;-62
2021/03/17 01:57:42;;;;;;;;;;;2.20;99.90;;;;;;5053826;28;20375;-63
2021/03/17 02:00:09;;;;;;;;;;;2.10;99.90;;;;;;5049162;28;19916;-63
2021/03/17 02:02:35;;;;;;;;;;;2.00;99.90;;;;;;5054571;28;19928;-62
2021/03/17 02:05:03;;;;;;;;;;;1.90;99.90;;;;;;5049034;28;19985;-63
2021/03/17 02:07:29;;;;;;;;;;;1.90;99.90;;;;;;5048589;28;19913;-63
2021/03/17 02:09:54;;;;;;;;;;;2.00;99.90;;;;;;5052078;28;19913;-62
2021/03/17 02:12:23;;;;;;;;;;;2.10;99.90;;;;;;5061268;28;20086;-62
2021/03/17 02:14:56;;;;;;;;;;;1.80;99.90;;;;;;5054172;28;19919;-63
2021/03/17 02:17:25;;;;;;;;;;;2.00;99.90;;;;;;5048248;28;19912;-62
2021/03/17 02:20:02;;;;;;;;;;;2.10;99.90;;;;;;5051418;28;19916;-64
2021/03/17 02:22:57;;;;;;;;;;;1.80;99.90;;;;;;5054183;28;19916;-62
2021/03/17 02:25:25;;;;;;;;;;;2.00;99.90;;;;;;5055061;28;19966;-62
2021/03/17 02:28:09;;;;;;;;;;;1.80;99.90;;;;;;5051774;28;20739;-63
2021/03/17 02:30:55;;;;;;;;;;;1.80;99.90;;;;;;5056389;28;19916;-64
2021/03/17 02:33:39;;;;;;;;;;;1.90;99.90;;;;;;5050340;28;19909;-63
2021/03/17 02:36:09;;;;;;;;;;;1.60;99.90;;;;;;5045760;28;19924;-62
2021/03/17 02:38:36;;;;;;;;;;;1.80;99.90;;;;;;5056359;28;20384;-62
2021/03/17 02:41:02;;;;;;;;;;;1.80;99.90;;;;;;5057230;28;19982;-62
2021/03/17 02:43:32;;;;;;;;;;;1.80;99.90;;;;;;5052513;28;20314;-62
2021/03/17 02:46:03;;;;;;;;;;;1.70;99.90;;;;;;5045437;28;19919;-63
2021/03/17 02:48:36;;;;;;;;;;;1.70;99.90;;;;;;5049858;28;20433;-63
2021/03/17 02:51:05;;;;;;;;;;;1.50;99.90;;;;;;5054103;28;19917;-62
2021/03/17 02:53:32;;;;;;;;;;;1.90;99.90;;;;;;5044547;28;19913;-64
2021/03/17 02:56:00;;;;;;;;;;;1.70;99.90;;;;;;5048868;28;19913;-64
2021/03/17 02:58:26;;;;;;;;;;;2.10;99.90;;;;;;5052875;28;20243;-64
2021/03/17 03:00:52;;;;;;;;;;;1.60;99.90;;;;;;5054471;28;21390;-62
2021/03/17 03:03:19;;;;;;;;;;;1.60;99.90;;;;;;5050718;28;20365;-63
2021/03/17 03:05:45;;;;;;;;;;;1.50;99.90;;;;;;5061467;28;20055;-63
2021/03/17 03:08:10;;;;;;;;;;;1.30;99.90;;;;;;5050425;28;20040;-63
2021/03/17 03:10:37;;;;;;;;;;;1.50;99.90;;;;;;5055106;28;20549;-63
2021/03/17 03:13:04;;;;;;;;;;;1.50;99.90;;;;;;5052446;28;19916;-63
2021/03/17 03:15:30;;;;;;;;;;;1.60;99.90;;;;;;5058464;28;19932;-63
2021/03/17 03:17:57;;;;;;;;;;;1.60;99.90;;;;;;5054874;28;19936;-64
2021/03/17 03:20:24;;;;;;;;;;;1.60;99.90;;;;;;5052780;28;19923;-63
2021/03/17 03:22:50;;;;;;;;;;;1.60;99.90;;;;;;5058332;28;20283;-63
2021/03/17 03:25:16;;;;;;;;;;;1.60;99.90;;;;;;5063385;28;19913;-64
2021/03/17 03:27:42;;;;;;;;;;;1.60;99.90;;;;;;5056749;28;20452;-61
2021/03/17 03:30:10;;;;;;;;;;;1.50;99.90;;;;;;5056013;28;19916;-63
2021/03/17 03:32:35;;;;;;;;;;;1.40;99.90;;;;;;5052808;28;19920;-64
2021/03/17 03:35:04;;;;;;;;;;;1.60;99.90;;;;;;5049026;28;20396;-64
2021/03/17 03:37:29;;;;;;;;;;;1.30;99.90;;;;;;5047170;28;19913;-62
2021/03/17 03:39:55;;;;;;;;;;;1.50;99.90;;;;;;5051366;28;20340;-63
2021/03/17 03:42:23;;;;;;;;;;;1.40;99.90;;;;;;5065878;28;19908;-63
2021/03/17 03:44:48;;;;;;;;;;;1.50;99.90;;;;;;5058828;28;19909;-63
2021/03/17 03:47:14;;;;;;;;;;;1.40;99.90;;;;;;5052194;28;19916;-65
2021/03/17 03:49:39;;;;;;;;;;;1.50;99.90;;;;;;5050275;28;20407;-64
2021/03/17 03:52:08;;;;;;;;;;;1.30;99.90;;;;;;5056042;28;21278;-63
2021/03/17 03:54:42;;;;;;;;;;;1.10;99.90;;;;;;5050426;28;20008;-62
2021/03/17 03:57:43;;;;;;;;;;;1.20;99.90;;;;;;5051862;28;19908;-65
2021/03/17 04:00:09;;;;;;;;;;;1.20;99.90;;;;;;5089230;28;19989;-64
2021/03/17 04:02:46;;;;;;;;;;;1.30;99.90;;;;;;5059552;28;19913;-64
2021/03/17 04:05:15;;;;;;;;;;;1.10;99.90;;;;;;5043743;28;19916;-64
2021/03/17 04:07:42;;;;;;;;;;;1.20;99.90;;;;;;5068875;28;19920;-63
2021/03/17 04:10:09;;;;;;;;;;;1.20;99.90;;;;;;5048385;28;20404;-64
2021/03/17 04:12:37;;;;;;;;;;;1.30;99.90;;;;;;5047602;28;20254;-63
2021/03/17 04:15:04;;;;;;;;;;;1.40;99.90;;;;;;5047044;28;19999;-64
2021/03/17 04:17:36;;;;;;;;;;;1.20;99.90;;;;;;5046569;28;20196;-62
2021/03/17 04:20:05;;;;;;;;;;;1.20;99.90;;;;;;5049259;28;19947;-62
2021/03/17 04:22:31;;;;;;;;;;;1.30;99.90;;;;;;5048981;28;19913;-62
2021/03/17 04:25:01;;;;;;;;;;;1.30;99.90;;;;;;5046027;28;20095;-61
2021/03/17 04:27:27;;;;;;;;;;;1.30;99.90;;;;;;5051691;28;19963;-62
2021/03/17 04:29:53;;;;;;;;;;;1.70;99.90;;;;;;5056039;28;20529;-63
2021/03/17 04:32:19;;;;;;;;;;;1.50;99.90;;;;;;5050640;28;19909;-62
2021/03/17 04:34:46;;;;;;;;;;;1.50;99.90;;;;;;5048716;28;20019;-63
2021/03/17 04:37:11;;;;;;;;;;;1.50;99.90;;;;;;5045582;28;19909;-62
2021/03/17 04:39:38;;;;;;;;;;;1.60;99.90;;;;;;5050474;28;19966;-63
2021/03/17 04:42:03;;;;;;;;;;;1.60;99.90;;;;;;5041235;28;19948;-61
2021/03/17 04:44:29;;;;;;;;;;;1.50;99.90;;;;;;5049126;28;19966;-62
2021/03/17 04:46:55;;;;;;;;;;;1.60;99.90;;;;;;5044820;28;19919;-61
2021/03/17 04:49:21;;;;;;;;;;;1.60;99.90;;;;;;5046315;28;19952;-62
2021/03/17 04:51:48;;;;;;;;;;;1.40;99.90;;;;;;5050318;28;20007;-62
2021/03/17 04:54:13;;;;;;;;;;;1.60;99.90;;;;;;5047082;28;19920;-64
2021/03/17 04:56:40;;;;;;;;;;;1.20;99.90;;;;;;5063700;28;19930;-64
2021/03/17 04:59:06;;;;;;;;;;;1.60;99.90;;;;;;5049835;28;20628;-63
2021/03/17 05:01:34;;;;;;;;;;;1.80;99.90;;;;;;5046822;28;19999;-63
2021/03/17 05:04:00;;;;;;;;;;;1.70;99.90;;;;;;5045075;28;19913;-62
2021/03/17 05:06:26;;;;;;;;;;;1.60;99.90;;;;;;5045431;28;19912;-61
2021/03/17 05:08:51;;;;;;;;;;;1.60;99.90;;;;;;5046733;28;19934;-62
2021/03/17 05:11:17;;;;;;;;;;;1.60;99.90;;;;;;5034980;28;19919;-62
2021/03/17 05:13:43;;;;;;;;;;;1.70;99.90;;;;;;5045029;28;19939;-61
2021/03/17 05:16:10;;;;;;;;;;;1.60;99.90;;;;;;5065436;28;19936;-62
2021/03/17 05:18:36;;;;;;;;;;;1.60;99.90;;;;;;5046139;28;19908;-61
2021/03/17 05:21:02;;;;;;;;;;;1.60;99.90;;;;;;5048037;28;19923;-62
2021/03/17 05:23:28;;;;;;;;;;;1.60;99.90;;;;;;5047816;28;19913;-61
2021/03/17 05:25:54;;;;;;;;;;;1.80;99.90;;;;;;5047311;28;19913;-62
2021/03/17 05:28:22;;;;;;;;;;;1.60;99.90;;;;;;5055623;28;19921;-61
2021/03/17 05:30:48;;;;;;;;;;;1.60;99.90;;;;;;5050431;28;19935;-62
2021/03/17 05:33:15;;;;;;;;;;;1.70;99.90;;;;;;5065652;28;19912;-61
2021/03/17 05:35:41;;;;;;;;;;;1.60;99.90;;;;;;5049873;28;20415;-62
2021/03/17 05:38:06;;;;;;;;;;;1.70;99.90;;;;;;5049211;28;19970;-61
2021/03/17 05:40:32;;;;;;;;;;;2.20;99.90;;;;;;5054382;28;19920;-62
2021/03/17 05:43:03;;;;;;;;;;;2.00;99.90;;;;;;5046731;28;20352;-61
2021/03/17 05:45:29;;;;;;;;;;;1.90;99.90;;;;;;5058907;28;19923;-62
2021/03/17 05:47:55;;;;;;;;;;;2.00;99.90;;;;;;5053964;28;19916;-62
2021/03/17 05:50:23;;;;;;;;;;;1.90;99.90;;;;;;5059587;28;20284;-61
2021/03/17 05:52:48;;;;;;;;;;;1.80;99.90;;;;;;5054251;28;19916;-63
2021/03/17 05:55:15;;;;;;;;;;;1.80;99.90;;;;;;5046920;28;19912;-61
2021/03/17 05:57:40;;;;;;;;;;;2.00;99.90;;;;;;5048099;28;19960;-61
2021/03/17 06:00:07;;;;;;;;;;;1.90;99.90;;;;;;5052646;28;19916;-61
2021/03/17 06:02:33;;;;;;;;;;;1.80;99.90;;;;;;5047869;28;19916;-62
2021/03/17 06:04:59;;;;;;;;;;;2.00;99.90;;;;;;5048980;28;19912;-62
2021/03/17 06:07:27;;;;;;;;;;;2.20;99.90;;;;;;5046424;28;19920;-61
2021/03/17 06:09:53;;;;;;;;;;;2.10;99.90;;;;;;5045322;28;19951;-61
2021/03/17 06:12:21;;;;;;;;;;;1.90;99.90;;;;;;5047842;28;19920;-61
2021/03/17 06:14:47;;;;;;;;;;;2.10;99.90;;;;;;5058434;28;19920;-61
2021/03/17 06:17:13;;;;;;;;;;;;;;;;;;5062180;28;20428;-61
2021/03/17 06:19:43;;;;;;;;;;;1.60;99.90;;;;;;5049681;28;19966;-62
2021/03/17 06:22:09;;;;;;;;;;;1.60;99.90;;;;;;5048819;28;19924;-62
2021/03/17 06:24:35;;;;;;;;;;;1.80;99.90;;;;;;5068917;28;19912;-63
2021/03/17 06:27:02;;;;;;;;;;;1.70;99.90;;;;;;5049876;28;19916;-61
2021/03/17 06:29:27;;;;;;;;;;;1.90;99.90;;;;;;5050287;28;19913;-60
2021/03/17 06:31:53;;;;;;;;;;;2.00;99.90;;;;;;5053424;28;19919;-60
2021/03/17 06:34:18;;;;;;;;;;;2.00;99.90;;;;;;5048425;28;20368;-61
2021/03/17 06:36:48;;;;;;;;;;;2.20;99.90;;;;;;5053915;28;19958;-60
2021/03/17 06:39:13;;;;;;;;;;;2.30;99.90;;;;;;5049041;28;19919;-61
2021/03/17 06:41:51;;;;;;;;;;;2.10;99.90;;;;;;5051135;28;20592;-62
2021/03/17 06:44:35;;;;;;;;;;;2.20;99.90;;;;;;5053906;28;19958;-61
2021/03/17 06:47:14;;;;;;;;;;;2.20;99.90;;;;;;5062007;28;20363;-61
2021/03/17 06:49:41;;;;;;;;;;;2.30;99.90;;;;;;5045910;28;19956;-62
2021/03/17 06:52:26;;;;;;;;;;;2.20;99.90;;;;;;5055320;28;20134;-60
2021/03/17 06:55:04;;;;;;;;;;;3.10;99.90;;;;;;5046911;28;19935;-64
2021/03/17 06:57:30;;;;;;;;;;;2.00;99.90;;;;;;5053114;28;19924;-63
2021/03/17 07:00:15;;;;;;;;;;;3.20;99.90;;;;;;5046107;28;19920;-64
2021/03/17 07:02:41;;;;;;;;;;;2.50;99.90;;;;;;5044709;28;19946;-62
2021/03/17 07:05:07;;;;;;;;;;;2.60;99.90;;;;;;5051971;28;19960;-62
2021/03/17 07:07:45;;;;;;;;;;;2.40;99.90;;;;;;5050202;28;20291;-63
2021/03/17 07:10:10;;;;;;;;;;;2.40;99.90;;;;;;5054593;28;19944;-62
2021/03/17 07:12:36;;;;;;;;;;;2.50;99.90;;;;;;5054573;28;19951;-61
2021/03/17 07:15:07;;;;;;;;;;;2.70;99.90;;;;;;5047269;28;19913;-61
2021/03/17 07:17:33;;;;;;;;;;;2.80;99.90;;;;;;5050267;28;19916;-62
2021/03/17 07:19:59;;;;;;;;;;;2.60;99.90;;;;;;5051350;28;19973;-63
2021/03/17 07:22:25;;;;;;;;;;;2.60;99.90;;;;;;5050699;28;20527;-61
2021/03/17 07:24:54;;;;;;;;;;;2.40;99.90;;;;;;5050309;28;19920;-64
2021/03/17 07:27:20;;;;;;;;;;;2.40;99.90;;;;;;5047812;28;19917;-62
2021/03/17 07:30:05;;;;;;;;;;;2.80;99.90;;;;;;5067959;28;19982;-63
2021/03/17 07:32:51;;;;;;;;;;;2.60;99.90;;;;;;5050542;28;20321;-60
2021/03/17 07:35:28;;;;;;;;;;;2.50;99.90;;;;;;5044422;28;19921;-63
2021/03/17 07:38:04;;;;;;;;;;;2.20;99.90;;;;;;5054013;28;19916;-63
2021/03/17 07:40:30;;;;;;;;;;;2.10;99.90;;;;;;5046435;28;20284;-63
2021/03/17 07:42:58;;;;;;;;;;;2.10;99.90;;;;;;5047965;28;19908;-61
2021/03/17 07:45:24;;;;;;;;;;;2.00;99.90;;;;;;5052656;28;19967;-64
2021/03/17 07:47:50;;;;;;;;;;;1.80;99.90;;;;;;5047021;28;19956;-62
2021/03/17 07:50:16;;;;;;;;;;;2.10;99.90;;;;;;5050312;28;19974;-63
2021/03/17 07:52:42;;;;;;;;;;;2.30;99.90;;;;;;5048249;28;19913;-61
2021/03/17 07:55:08;;;;;;;;;;;2.00;99.90;;;;;;5041793;28;19944;-61
2021/03/17 07:57:34;;;;;;;;;;;2.00;99.90;;;;;;5054093;28;20573;-63
2021/03/17 08:00:00;;;;;;;;;;;2.00;99.90;;;;;;5049598;28;20030;-64
2021/03/17 08:02:25;;;;;;;;;;;2.20;99.90;;;;;;5046393;28;19912;-63
2021/03/17 08:04:51;;;;;;;;;;;2.60;99.90;;;;;;5045533;28;19955;-62
2021/03/17 08:07:18;;;;;;;;;;;2.00;99.90;;;;;;5058783;28;19912;-64
2021/03/17 08:09:44;;;;;;;;;;;2.20;99.90;;;;;;5051592;28;19919;-64
2021/03/17 08:12:10;;;;;;;;;;;2.50;99.90;;;;;;5049618;28;20512;-64
2021/03/17 08:14:39;;;;;;;;;;;2.70;99.90;;;;;;5053163;28;19913;-61
2021/03/17 08:17:04;;;;;;;;;;;3.40;99.90;;;;;;5050284;28;19908;-62
2021/03/17 08:19:30;;;;;;;;;;;3.70;99.90;;;;;;5047361;28;19916;-61
2021/03/17 08:22:00;;;;;;;;;;;4.30;99.90;;;;;;5053046;28;19917;-63
2021/03/17 08:24:29;;;;;;;;;;;4.30;99.90;;;;;;5046224;28;19930;-63
2021/03/17 08:26:55;;;;;;;;;;;4.30;99.90;;;;;;5044743;28;20451;-64
2021/03/17 08:29:21;;;;;;;;;;;4.80;99.90;;;;;;5053234;28;20360;-64
2021/03/17 08:31:47;;;;;;;;;;;4.80;99.90;;;;;;5041162;28;19942;-62
2021/03/17 08:34:18;;;;;;;;;;;4.80;99.90;;;;;;5052610;28;19919;-63
2021/03/17 08:36:45;;;;;;;;;;;4.70;99.90;;;;;;5049525;28;19912;-62
2021/03/17 08:39:11;;;;;;;;;;;5.30;99.90;;;;;;5047370;28;19913;-60
2021/03/17 08:41:36;;;;;;;;;;;5.40;99.90;;;;;;5047494;28;19919;-62
2021/03/17 08:44:12;;;;;;;;;;;5.40;99.90;;;;;;5040770;28;19919;-62
2021/03/17 08:46:38;;;;;;;;;;;4.80;99.90;;;;;;5042690;28;20000;-63
2021/03/17 08:49:04;;;;;;;;;;;4.90;99.90;;;;;;5055327;28;19991;-61
2021/03/17 08:51:48;;;;;;;;;;;4.90;99.90;;;;;;5059021;28;19921;-63
2021/03/17 08:54:42;;;;;;;;;;;4.50;99.90;;;;;;5049672;28;20444;-62
2021/03/17 08:57:17;;;;;;;;;;;4.40;99.90;;;;;;5046375;28;19912;-63
2021/03/17 08:59:43;;;;;;;;;;;;;;;;;;5045483;28;19982;-63
2021/03/17 09:02:18;;;;;;;;;;;4.90;99.90;;;;;;5051125;28;20348;-64
2021/03/17 09:04:51;;;;;;;;;;;5.20;99.90;;;;;;5043405;28;19944;-62
2021/03/17 09:07:17;;;;;;;;;;;5.80;99.90;;;;;;5050145;28;20432;-64
2021/03/17 09:09:46;;;;;;;;;;;6.70;99.90;;;;;;5050340;28;19924;-64
2021/03/17 09:12:14;;;;;;;;;;;6.30;99.90;;;;;;5044257;28;20586;-62
2021/03/17 09:14:40;;;;;;;;;;;;;;;;;;5049839;28;19908;-63
2021/03/17 09:17:06;;;;;;;;;;;;;;;;;;5048261;28;19919;-63
2021/03/17 09:19:51;;;;;;;;;;;5.70;99.90;;;;;;5046055;28;19952;-65
2021/03/17 09:22:36;;;;;;;;;;;6.00;99.90;;;;;;5051432;28;19913;-62
2021/03/17 09:25:02;;;;;;;;;;;;;;;;;;5047461;28;19908;-63
2021/03/17 09:27:27;;;;;;;;;;;;;;;;;;5058926;28;19939;-66
2021/03/17 09:29:53;;;;;;;;;;;5.20;99.90;;;;;;5051490;28;19920;-65
2021/03/17 09:32:19;;;;;;;;;;;6.20;99.90;;;;;;5046383;28;19912;-61
2021/03/17 09:34:45;;;;;;;;;;;7.30;99.90;;;;;;5050226;28;19935;-63
2021/03/17 09:37:11;;;;;;;;;;;8.10;99.90;;;;;;5048882;28;19920;-62
2021/03/17 09:39:45;;;;;;;;;;;8.60;99.90;;;;;;5045704;28;19909;-65
2021/03/17 09:42:15;;;;;;;;;;;8.00;99.90;;;;;;5055199;28;20264;-64
2021/03/17 09:44:40;;;;;;;;;;;7.30;99.90;;;;;;5044655;28;19909;-62
2021/03/17 09:47:05;;;;;;;;;;;7.30;99.90;;;;;;5060727;28;20621;-64
2021/03/17 09:49:31;;;;;;;;;;;7.10;99.90;;;;;;5048901;28;19951;-64
2021/03/17 09:51:58;;;;;;;;;;;6.70;99.90;;;;;;5047401;28;20242;-62
2021/03/17 09:54:27;;;;;;;;;;;6.30;99.90;;;;;;5049153;28;20827;-63
2021/03/17 09:56:54;;;;;;;;;;;5.70;99.90;;;;;;5045729;28;20082;-64
2021/03/17 09:59:24;;;;;;;;;;;5.30;99.90;;;;;;5044883;28;19916;-64
2021/03/17 10:01:55;;;;;;;;;;;5.00;99.90;;;;;;5052045;28;19919;-64
2021/03/17 10:04:21;;;;;;;;;;;4.90;99.90;;;;;;5042722;28;20344;-62
2021/03/17 10:06:47;;;;;;;;;;;5.00;99.90;;;;;;5052294;28;20710;-63
2021/03/17 10:09:12;;;;;;;;;;;5.10;99.90;;;;;;5046865;28;19919;-63
2021/03/17 10:11:38;;;;;;;;;;;6.00;99.90;;;;;;5049374;28;20027;-64
2021/03/17 10:14:09;;;;;;;;;;;6.10;99.90;;;;;;5054133;28;19920;-62
2021/03/17 10:16:35;;;;;;;;;;;6.20;99.90;;;;;;5047950;28;20003;-64
2021/03/17 10:19:00;;;;;;;;;;;6.10;99.90;;;;;;5053851;28;20055;-64
2021/03/17 10:21:26;;;;;;;;;;;6.40;99.90;;;;;;5047811;28;19909;-64
2021/03/17 10:23:52;;;;;;;;;;;6.90;99.90;;;;;;5051213;28;19923;-65
2021/03/17 10:26:17;;;;;;;;;;;5.90;99.90;;;;;;5053399;28;19912;-64
2021/03/17 10:28:43;;;;;;;;;;;5.80;99.90;;;;;;5046339;28;20429;-65
2021/03/17 10:31:09;;;;;;;;;;;6.60;99.90;;;;;;5055151;28;19913;-63
2021/03/17 10:33:34;;;;;;;;;;;7.30;99.90;;;;;;5052032;28;19908;-63
2021/03/17 10:35:59;;;;;;;;;;;7.20;99.90;;;;;;5050941;28;19913;-63
2021/03/17 10:38:25;;;;;;;;;;;8.60;99.90;;;;;;5055485;28;19908;-63
2021/03/17 10:40:51;;;;;;;;;;;9.60;99.10;;;;;;5046464;28;19913;-62
2021/03/17 10:43:18;;;;;;;;;;;10.70;97.50;;;;;;5068591;28;19908;-62
2021/03/17 10:45:45;;;;;;;;;;;11.50;94.90;;;;;;5050283;28;19920;-61
2021/03/17 10:48:15;;;;;;;;;;;12.50;95.00;;;;;;5045164;28;19947;-63
2021/03/17 10:50:41;;;;;;;;;;;12.20;95.70;;;;;;5052131;28;19919;-65
2021/03/17 10:53:20;;;;;;;;;;;10.50;95.80;;;;;;5050124;28;19912;-63
2021/03/17 10:55:46;;;;;;;;;;;9.40;93.80;;;;;;5043243;28;19917;-63
2021/03/17 10:58:19;;;;;;;;;;;8.60;96.90;;;;;;5045676;28;19915;-61
2021/03/17 11:00:49;;;;;;;;;;;7.60;94.70;;;;;;5045774;28;19920;-63
2021/03/17 11:03:41;;;;;;;;;;;7.40;99.90;;;;;;5069069;28;20384;-64
2021/03/17 11:06:14;;;;;;;;;;;6.90;98.80;;;;;;5041872;28;19999;-62
2021/03/17 11:08:40;;;;;;;;;;;6.80;98.80;;;;;;5045848;28;19916;-63
2021/03/17 11:11:10;;;;;;;;;;;6.70;97.40;;;;;;5068931;28;19919;-63
2021/03/17 11:13:40;;;;;;;;;;;7.90;99.90;;;;;;5049200;28;19991;-64
2021/03/17 11:16:10;;;;;;;;;;;8.20;99.90;;;;;;5044257;28;20017;-64
2021/03/17 11:18:37;;;;;;;;;;;7.60;99.30;;;;;;5049139;28;19912;-64
2021/03/17 11:21:17;;;;;;;;;;;7.80;99.90;;;;;;5045392;28;19917;-62
2021/03/17 11:23:43;;;;;;;;;;;7.70;99.10;;;;;;5047914;28;20539;-65
2021/03/17 11:26:24;;;;;;;;;;;7.90;99.90;;;;;;5049253;28;20050;-64
2021/03/17 11:28:50;;;;;;;;;;;8.70;98.20;;;;;;5043913;28;19925;-63
2021/03/17 11:31:23;;;;;;;;;;;10.00;99.00;;;;;;5053122;28;19958;-61
2021/03/17 11:33:49;;;;;;;;;;;10.10;94.40;;;;;;5049111;28;19909;-61
2021/03/17 11:36:14;;;;;;;;;;;10.30;96.40;;;;;;5048829;28;20387;-65
2021/03/17 11:38:40;;;;;;;;;;;10.30;93.10;;;;;;5052451;28;19913;-63
2021/03/17 11:41:05;;;;;;;;;;;9.70;93.40;;;;;;5045384;28;19919;-62
2021/03/17 11:43:32;;;;;;;;;;;9.60;92.80;;;;;;5052101;28;19912;-64
2021/03/17 11:45:59;;;;;;;;;;;9.90;92.00;;;;;;5043679;28;19913;-66
2021/03/17 11:48:24;;;;;;;;;;;8.90;91.60;;;;;;5058750;28;19956;-66
2021/03/17 11:50:51;;;;;;;;;;;9.20;91.80;;;;;;5049670;28;20011;-67
2021/03/17 11:53:17;;;;;;;;;;;8.90;91.20;;;;;;5046906;28;19944;-65
2021/03/17 11:55:43;;;;;;;;;;;8.30;90.90;;;;;;5047886;28;19968;-64
2021/03/17 11:58:12;;;;;;;;;;;8.00;91.30;;;;;;5047149;28;19909;-64
2021/03/17 12:00:37;;;;;;;;;;;7.50;92.90;;;;;;5061001;28;20015;-63
2021/03/17 12:03:03;;;;;;;;;;;7.60;94.80;;;;;;5052248;28;19916;-64
2021/03/17 12:05:29;;;;;;;;;;;7.40;94.70;;;;;;5058116;28;19978;-64
2021/03/17 12:07:54;;;;;;;;;;;7.20;91.60;;;;;;5050338;28;20403;-66
2021/03/17 12:10:20;;;;;;;;;;;7.20;94.20;;;;;;5047527;28;20005;-63
2021/03/17 12:12:46;;;;;;;;;;;7.00;93.00;;;;;;5046484;28;19947;-66
2021/03/17 12:15:13;;;;;;;;;;;7.00;94.40;;;;;;5049218;28;19917;-65
2021/03/17 12:17:39;;;;;;;;;;;6.80;92.60;;;;;;5039585;28;19932;-67
2021/03/17 12:20:06;;;;;;;;;;;6.50;92.20;;;;;;5042769;28;19919;-64
2021/03/17 12:22:32;;;;;;;;;;;6.30;91.40;;;;;;5043347;28;19912;-64
2021/03/17 12:24:57;;;;;;;;;;;6.40;91.00;;;;;;5043982;28;20465;-66
2021/03/17 12:27:23;;;;;;;;;;;6.70;91.10;;;;;;5047225;28;19917;-67
2021/03/17 12:29:49;;;;;;;;;;;6.50;90.90;;;;;;5043529;28;19913;-65
2021/03/17 12:32:15;;;;;;;;;;;6.70;91.40;;;;;;5042195;28;20000;-64
2021/03/17 12:34:41;;;;;;;;;;;6.90;92.00;;;;;;5041160;28;19920;-65
2021/03/17 12:37:07;;;;;;;;;;;6.50;92.10;;;;;;5043659;28;19917;-66
2021/03/17 12:39:35;;;;;;;;;;;6.30;92.20;;;;;;5062645;28;19919;-66
2021/03/17 12:42:00;;;;;;;;;;;6.60;92.90;;;;;;5040884;28;19948;-64
2021/03/17 12:44:26;;;;;;;;;;;;;;;;;;5043939;28;19991;-65
2021/03/17 12:46:52;;;;;;;;;;;6.70;98.70;;;;;;5044431;28;19981;-65
2021/03/17 12:49:17;;;;;;;;;;;6.40;91.60;;;;;;5043934;28;19919;-65
2021/03/17 12:51:42;;;;;;;;;;;6.40;93.20;;;;;;5046024;28;19916;-67
2021/03/17 12:54:08;;;;;;;;;;;;;;;;;;5041964;28;19912;-65
2021/03/17 12:56:36;;;;;;;;;;;6.30;97.10;;;;;;5043061;28;20003;-66
2021/03/17 12:59:02;;;;;;;;;;;6.70;92.80;;;;;;5055506;28;20000;-64
2021/03/17 13:01:27;;;;;;;;;;;6.60;95.30;;;;;;5044053;28;19912;-66
2021/03/17 13:03:53;;;;;;;;;;;6.40;94.70;;;;;;5044881;28;19969;-63
2021/03/17 13:06:19;;;;;;;;;;;6.30;92.10;;;;;;5042328;28;20922;-64
2021/03/17 13:08:44;;;;;;;;;;;6.50;93.80;;;;;;5044820;28;19916;-66
2021/03/17 13:11:10;;;;;;;;;;;6.40;88.00;;;;;;5046152;28;20769;-65
2021/03/17 13:13:35;;;;;;;;;;;6.50;88.50;;;;;;5039815;28;19913;-65
2021/03/17 13:16:01;;;;;;;;;;;6.30;86.90;;;;;;5049449;28;19912;-63
2021/03/17 13:18:26;;;;;;;;;;;6.20;88.00;;;;;;5043332;28;19912;-62
2021/03/17 13:20:52;;;;;;;;;;;6.70;87.00;;;;;;5049680;28;19944;-65
2021/03/17 13:23:17;;;;;;;;;;;6.20;87.90;;;;;;5044484;28;20001;-66
2021/03/17 13:25:43;;;;;;;;;;;6.20;89.70;;;;;;5045545;28;20002;-67
2021/03/17 13:28:10;;;;;;;;;;;6.40;87.50;;;;;;5043197;28;19943;-64
2021/03/17 13:30:35;;;;;;;;;;;6.50;87.60;;;;;;5045086;28;19969;-63
2021/03/17 13:33:01;;;;;;;;;;;6.70;87.90;;;;;;5062323;28;20003;-64
2021/03/17 13:35:27;;;;;;;;;;;6.40;86.60;;;;;;5047111;28;19935;-64
2021/03/17 13:37:52;;;;;;;;;;;6.50;85.10;;;;;;5041677;28;19917;-66
2021/03/17 13:40:18;;;;;;;;;;;7.00;86.80;;;;;;5041828;28;20008;-64
2021/03/17 13:42:44;;;;;;;;;;;7.30;87.30;;;;;;5045284;28;20023;-65
2021/03/17 13:45:11;;;;;;;;;;;7.30;86.80;;;;;;5058677;28;19916;-66
2021/03/17 13:47:36;;;;;;;;;;;7.10;86.00;;;;;;5045101;28;19971;-66
2021/03/17 13:50:03;;;;;;;;;;;7.30;85.80;;;;;;5046395;28;19955;-63
2021/03/17 13:52:29;;;;;;;;;;;7.60;86.70;;;;;;5046377;28;20351;-64
2021/03/17 13:54:54;;;;;;;;;;;8.30;86.50;;;;;;5057910;28;19947;-63
2021/03/17 13:57:20;;;;;;;;;;;8.80;83.20;;;;;;5049199;28;19912;-65
2021/03/17 13:59:45;;;;;;;;;;;8.30;84.00;;;;;;5048928;28;19923;-66
2021/03/17 14:02:12;;;;;;;;;;;8.50;85.70;;;;;;5049904;28;19913;-65
2021/03/17 14:04:38;;;;;;;;;;;9.00;85.50;;;;;;5047515;28;19912;-64
2021/03/17 14:07:04;;;;;;;;;;;9.20;87.30;;;;;;5046133;28;19923;-64
2021/03/17 14:09:29;;;;;;;;;;;10.00;90.00;;;;;;5046859;28;20331;-67
2021/03/17 14:11:55;;;;;;;;;;;9.10;86.00;;;;;;5048259;28;19919;-64
2021/03/17 14:14:20;;;;;;;;;;;9.20;88.20;;;;;;5046799;28;20306;-66
2021/03/17 14:16:46;;;;;;;;;;;9.10;90.00;;;;;;5047586;28;20801;-66
2021/03/17 14:19:11;;;;;;;;;;;8.80;90.00;;;;;;5046000;28;20582;-64
2021/03/17 14:21:37;;;;;;;;;;;8.30;88.90;;;;;;5063485;28;20479;-65
2021/03/17 14:24:03;;;;;;;;;;;8.10;88.10;;;;;;5045188;28;19958;-65
2021/03/17 14:26:29;;;;;;;;;;;7.30;87.90;;;;;;5057806;28;19919;-67
2021/03/17 14:28:54;;;;;;;;;;;7.20;88.20;;;;;;5046840;28;19917;-64
2021/03/17 14:31:20;;;;;;;;;;;7.40;85.50;;;;;;5045072;28;19908;-66
2021/03/17 14:33:45;;;;;;;;;;;6.90;83.10;;;;;;5045336;28;19912;-63
2021/03/17 14:36:11;;;;;;;;;;;6.40;83.90;;;;;;5049641;28;20300;-63